createdAt,value
2023-04-20T00:01:49.156Z,11.34
2023-04-20T00:03:52.199Z,11.39
2023-04-20T00:05:55.060Z,11.37
2023-04-20T00:07:57.563Z,11.23
2023-04-20T00:09:59.999Z,11.31
2023-04-20T00:12:02.241Z,11.22
2023-04-20T00:14:04.633Z,11.20
2023-04-20T00:16:07.051Z,11.09
2023-04-20T00:18:09.197Z,11.15
2023-04-20T00:20:14.392Z,11.07
2023-04-20T00:22:16.822Z,11.04
2023-04-20T00:24:19.075Z,11.09
2023-04-20T00:26:21.475Z,11.09
2023-04-20T00:28:23.666Z,11.09
2023-04-20T00:30:25.731Z,10.99
2023-04-20T00:32:30.942Z,10.98
2023-04-20T00:34:33.006Z,10.97
2023-04-20T00:36:34.916Z,10.95
2023-04-20T00:38:37.009Z,11.00
2023-04-20T00:40:39.002Z,11.04
2023-04-20T00:42:41.625Z,10.97
2023-04-20T00:44:43.587Z,10.92
2023-04-20T00:46:45.972Z,10.90
2023-04-20T00:48:50.442Z,10.87
2023-04-20T00:50:52.787Z,10.89
2023-04-20T00:52:55.111Z,10.86
2023-04-20T00:54:57.061Z,10.92
2023-04-20T00:57:00.198Z,10.88
2023-04-20T00:59:02.726Z,11.02
2023-04-20T01:01:06.165Z,11.03
2023-04-20T01:03:08.942Z,11.03
2023-04-20T01:05:11.317Z,10.95
2023-04-20T01:07:13.333Z,11.06
2023-04-20T01:09:15.405Z,10.93
2023-04-20T01:11:18.257Z,11.03
2023-04-20T01:13:20.343Z,10.85
2023-04-20T01:15:22.394Z,10.98
2023-04-20T01:17:24.587Z,10.99
2023-04-20T01:19:26.989Z,10.89
2023-04-20T01:21:29.023Z,10.96
2023-04-20T01:23:35.273Z,10.76
2023-04-20T01:25:37.208Z,10.75
2023-04-20T01:27:39.264Z,10.83
2023-04-20T01:29:41.204Z,10.74
2023-04-20T01:31:43.100Z,10.66
2023-04-20T01:33:45.141Z,10.81
2023-04-20T01:35:48.390Z,10.66
2023-04-20T01:37:50.320Z,10.45
2023-04-20T01:39:52.488Z,10.64
2023-04-20T01:41:54.747Z,10.59
2023-04-20T01:43:56.771Z,10.31
2023-04-20T01:46:00.052Z,10.51
2023-04-20T01:48:02.429Z,10.60
2023-04-20T01:50:04.902Z,10.60
2023-04-20T01:52:07.343Z,10.60
2023-04-20T01:54:09.283Z,10.50
2023-04-20T01:56:11.249Z,10.51
2023-04-20T01:58:13.182Z,10.61
2023-04-20T02:00:16.542Z,10.49
2023-04-20T02:02:18.688Z,10.60
2023-04-20T02:04:21.656Z,10.60
2023-04-20T02:06:23.586Z,10.69
2023-04-20T02:08:25.712Z,10.68
2023-04-20T02:10:27.731Z,10.61
2023-04-20T02:12:29.664Z,10.56
2023-04-20T02:14:31.954Z,10.64
2023-04-20T02:16:33.960Z,10.69
2023-04-20T02:18:35.952Z,10.73
2023-04-20T02:20:37.973Z,10.68
2023-04-20T02:22:39.890Z,10.62
2023-04-20T02:24:43.880Z,10.70
2023-04-20T02:26:45.833Z,10.65
2023-04-20T02:28:47.825Z,10.60
2023-04-20T02:30:49.897Z,10.70
2023-04-20T02:32:52.130Z,10.63
2023-04-20T02:34:54.111Z,10.70
2023-04-20T02:36:56.086Z,10.60
2023-04-20T02:38:58.049Z,10.73
2023-04-20T02:41:00.201Z,10.72
2023-04-20T02:43:02.121Z,10.69
2023-04-20T02:45:04.557Z,10.67
2023-04-20T02:47:06.734Z,10.52
2023-04-20T02:49:08.740Z,10.50
2023-04-20T02:51:10.668Z,10.47
2023-04-20T02:53:12.626Z,10.60
2023-04-20T02:55:15.505Z,10.62
2023-04-20T02:57:17.443Z,10.62
2023-04-20T02:59:19.570Z,10.70
2023-04-20T03:01:21.970Z,10.63
2023-04-20T03:03:24.214Z,10.65
2023-04-20T03:05:26.269Z,10.64
2023-04-20T03:07:28.878Z,10.68
2023-04-20T03:09:31.309Z,10.74
2023-04-20T03:11:33.306Z,10.65
2023-04-20T03:13:35.381Z,10.70
2023-04-20T03:15:37.344Z,10.65
2023-04-20T03:17:39.322Z,10.70
2023-04-20T03:19:41.790Z,10.69
2023-04-20T03:21:45.648Z,10.70
2023-04-20T03:23:48.024Z,10.70
2023-04-20T03:25:50.545Z,10.76
2023-04-20T03:27:52.535Z,10.83
2023-04-20T03:29:54.462Z,10.78
2023-04-20T03:31:56.635Z,10.81
2023-04-20T03:33:58.658Z,10.79
2023-04-20T03:36:00.601Z,10.72
2023-04-20T03:38:02.599Z,10.72
2023-04-20T03:40:06.300Z,10.70
2023-04-20T03:42:08.260Z,10.72
2023-04-20T03:44:10.271Z,10.72
2023-04-20T03:46:12.351Z,10.66
2023-04-20T03:48:14.361Z,10.75
2023-04-20T03:50:16.588Z,10.72
2023-04-20T03:52:18.636Z,10.69
2023-04-20T03:54:20.642Z,10.70
2023-04-20T03:56:22.596Z,10.64
2023-04-20T03:58:24.633Z,10.66
2023-04-20T04:00:26.917Z,10.68
2023-04-20T04:02:28.919Z,10.67
2023-04-20T04:04:31.173Z,10.64
2023-04-20T04:06:33.254Z,10.63
2023-04-20T04:08:35.294Z,10.65
2023-04-20T04:10:37.344Z,10.54
2023-04-20T04:12:39.308Z,10.58
2023-04-20T04:14:41.464Z,10.55
2023-04-20T04:16:43.434Z,10.57
2023-04-20T04:18:45.734Z,10.60
2023-04-20T04:20:47.696Z,10.60
2023-04-20T04:22:49.689Z,10.62
2023-04-20T04:24:51.804Z,10.63
2023-04-20T04:26:58.610Z,10.63
2023-04-20T04:29:00.581Z,10.53
2023-04-20T04:31:06.200Z,10.57
2023-04-20T04:33:10.273Z,10.59
2023-04-20T04:35:13.281Z,10.59
2023-04-20T04:37:15.304Z,10.58
2023-04-20T04:39:17.551Z,10.60
2023-04-20T04:41:20.471Z,10.61
2023-04-20T04:43:22.481Z,10.57
2023-04-20T04:45:25.494Z,10.61
2023-04-20T04:47:29.896Z,10.63
2023-04-20T04:49:33.050Z,10.62
2023-04-20T04:51:34.978Z,10.63
2023-04-20T04:53:37.363Z,10.61
2023-04-20T04:55:39.286Z,10.60
2023-04-20T04:57:41.284Z,10.54
2023-04-20T04:59:43.274Z,10.55
2023-04-20T05:01:45.205Z,10.51
2023-04-20T05:03:47.527Z,10.52
2023-04-20T05:05:49.618Z,10.50
2023-04-20T05:07:51.772Z,10.49
2023-04-20T05:09:53.788Z,10.53
2023-04-20T05:11:57.446Z,10.47
2023-04-20T05:13:59.462Z,10.45
2023-04-20T05:16:01.488Z,10.47
2023-04-20T05:18:03.515Z,10.49
2023-04-20T05:20:06.974Z,10.47
2023-04-20T05:22:09.029Z,10.48
2023-04-20T05:24:11.260Z,10.49
2023-04-20T05:26:14.242Z,10.46
2023-04-20T05:28:16.287Z,10.48
2023-04-20T05:30:21.780Z,10.47
2023-04-20T05:32:24.443Z,10.45
2023-04-20T05:34:26.542Z,10.35
2023-04-20T05:36:30.347Z,10.45
2023-04-20T05:38:32.294Z,10.49
2023-04-20T05:40:35.597Z,10.49
2023-04-20T05:42:37.682Z,10.51
2023-04-20T05:44:41.280Z,10.45
2023-04-20T05:46:43.300Z,10.53
2023-04-20T05:48:45.237Z,10.41
2023-04-20T05:50:47.272Z,10.52
2023-04-20T05:52:49.373Z,10.55
2023-04-20T05:54:51.570Z,10.54
2023-04-20T05:56:53.773Z,10.55
2023-04-20T05:58:56.625Z,10.58
2023-04-20T06:00:58.658Z,10.58
2023-04-20T06:03:01.493Z,10.61
2023-04-20T06:05:03.755Z,10.63
2023-04-20T06:07:05.966Z,10.63
2023-04-20T06:09:07.944Z,10.66
2023-04-20T06:11:10.036Z,10.61
2023-04-20T06:13:12.025Z,10.63
2023-04-20T06:15:14.151Z,10.63
2023-04-20T06:17:16.119Z,10.66
2023-04-20T06:19:18.351Z,10.66
2023-04-20T06:21:20.999Z,10.62
2023-04-20T06:23:23.002Z,10.65
2023-04-20T06:25:25.630Z,10.69
2023-04-20T06:27:27.604Z,10.70
2023-04-20T06:29:29.667Z,10.77
2023-04-20T06:31:31.698Z,10.75
2023-04-20T06:33:33.810Z,10.72
2023-04-20T06:35:36.195Z,10.80
2023-04-20T06:37:38.934Z,10.76
2023-04-20T06:39:41.126Z,10.77
2023-04-20T06:41:43.671Z,10.80
2023-04-20T06:43:46.546Z,10.70
2023-04-20T06:45:48.709Z,10.73
2023-04-20T06:47:50.974Z,10.84
2023-04-20T06:49:53.147Z,10.94
2023-04-20T06:51:55.232Z,10.89
2023-04-20T06:53:57.465Z,10.92
2023-04-20T06:55:59.688Z,10.98
2023-04-20T06:58:02.096Z,10.87
2023-04-20T07:00:06.546Z,11.01
2023-04-20T07:02:09.045Z,11.05
2023-04-20T07:04:11.797Z,11.11
2023-04-20T07:06:14.144Z,11.09
2023-04-20T07:08:16.792Z,11.16
2023-04-20T07:10:18.938Z,11.21
2023-04-20T07:12:21.063Z,11.20
2023-04-20T07:14:23.380Z,11.27
2023-04-20T07:16:25.491Z,11.28
2023-04-20T07:18:29.101Z,11.30
2023-04-20T07:20:32.750Z,11.37
2023-04-20T07:22:36.614Z,11.43
2023-04-20T07:24:38.653Z,11.48
2023-04-20T07:26:41.043Z,11.52
2023-04-20T07:28:43.378Z,11.61
2023-04-20T07:30:45.808Z,11.63
2023-04-20T07:32:48.010Z,11.65
2023-04-20T07:34:50.411Z,11.69
2023-04-20T07:36:52.655Z,11.65
2023-04-20T07:38:55.055Z,11.76
2023-04-20T07:40:57.080Z,11.79
2023-04-20T07:42:59.280Z,11.82
2023-04-20T07:45:01.891Z,11.84
2023-04-20T07:47:04.885Z,11.84
2023-04-20T07:49:07.241Z,11.94
2023-04-20T07:51:09.354Z,11.98
2023-04-20T07:53:11.633Z,12.04
2023-04-20T07:55:14.572Z,12.02
2023-04-20T07:57:16.733Z,12.17
2023-04-20T07:59:19.082Z,12.13
2023-04-20T08:01:26.076Z,12.22
2023-04-20T08:03:29.206Z,12.31
2023-04-20T08:05:31.754Z,12.37
2023-04-20T08:07:33.953Z,12.34
2023-04-20T08:09:36.213Z,12.41
2023-04-20T08:11:38.842Z,12.49
2023-04-20T08:13:41.760Z,12.51
2023-04-20T08:15:43.974Z,12.55
2023-04-20T08:17:46.291Z,12.68
2023-04-20T08:19:48.482Z,12.74
2023-04-20T08:21:51.683Z,12.77
2023-04-20T08:23:53.976Z,12.86
2023-04-20T08:25:57.122Z,12.85
2023-04-20T08:27:59.256Z,12.91
2023-04-20T08:30:03.956Z,12.95
2023-04-20T08:32:09.400Z,12.98
2023-04-20T08:34:13.274Z,12.98
2023-04-20T08:36:16.402Z,13.05
2023-04-20T08:38:23.705Z,13.08
2023-04-20T08:40:33.134Z,13.12
2023-04-20T08:42:36.141Z,13.20
2023-04-20T08:44:38.424Z,13.21
2023-04-20T08:46:47.245Z,13.14
2023-04-20T08:48:51.020Z,13.16
2023-04-20T08:50:55.203Z,13.30
2023-04-20T08:52:57.761Z,13.36
2023-04-20T08:54:59.973Z,13.41
2023-04-20T08:57:02.371Z,13.39
2023-04-20T08:59:05.946Z,13.59
2023-04-20T09:01:10.536Z,13.54
2023-04-20T09:03:13.395Z,13.71
2023-04-20T09:05:15.936Z,13.75
2023-04-20T09:07:20.409Z,13.86
2023-04-20T09:09:24.368Z,13.93
2023-04-20T09:11:28.346Z,14.05
2023-04-20T09:13:30.717Z,14.13
2023-04-20T09:15:32.768Z,14.16
2023-04-20T09:17:36.420Z,14.21
2023-04-20T09:19:38.516Z,14.31
2023-04-20T09:21:50.931Z,14.44
2023-04-20T09:23:57.626Z,14.46
2023-04-20T09:25:59.733Z,14.58
2023-04-20T09:28:02.872Z,14.64
2023-04-20T09:30:06.981Z,14.77
2023-04-20T09:32:09.992Z,14.78
2023-04-20T09:34:13.196Z,14.89
2023-04-20T09:36:17.902Z,14.96
2023-04-20T09:38:27.380Z,15.09
2023-04-20T09:40:30.133Z,15.15
2023-04-20T09:42:37.579Z,15.16
2023-04-20T09:44:40.627Z,15.17
2023-04-20T09:46:43.811Z,15.28
2023-04-20T09:48:46.401Z,15.30
2023-04-20T09:50:51.255Z,15.39
2023-04-20T09:52:54.428Z,15.52
2023-04-20T09:54:57.697Z,15.59
2023-04-20T09:57:00.275Z,15.76
2023-04-20T09:59:04.340Z,15.93
2023-04-20T10:01:11.508Z,16.06
2023-04-20T10:03:17.902Z,16.15
2023-04-20T10:05:20.205Z,16.32
2023-04-20T10:07:26.779Z,16.45
2023-04-20T10:09:28.949Z,16.54
2023-04-20T10:11:48.966Z,16.68
2023-04-20T10:13:56.198Z,16.86
2023-04-20T10:15:58.494Z,17.02
2023-04-20T10:18:00.777Z,17.13
2023-04-20T10:20:07.368Z,17.20
2023-04-20T10:22:11.207Z,17.33
2023-04-20T10:24:13.811Z,17.35
2023-04-20T10:26:16.846Z,17.51
2023-04-20T10:28:19.185Z,17.52
2023-04-20T10:30:22.286Z,17.56
2023-04-20T10:32:26.320Z,17.64
2023-04-20T10:34:33.678Z,17.76
2023-04-20T10:36:37.928Z,17.81
2023-04-20T10:38:40.248Z,17.82
2023-04-20T10:40:42.886Z,17.99
2023-04-20T10:42:45.886Z,18.01
2023-04-20T10:44:51.508Z,18.12
2023-04-20T10:46:54.766Z,18.32
2023-04-20T10:48:58.282Z,18.45
2023-04-20T10:51:10.230Z,18.55
2023-04-20T10:53:18.714Z,18.73
2023-04-20T10:55:23.086Z,18.84
2023-04-20T10:57:25.109Z,18.80
2023-04-20T10:59:29.281Z,18.92
2023-04-20T11:01:33.149Z,18.97
2023-04-20T11:03:35.861Z,19.08
2023-04-20T11:05:38.253Z,19.13
2023-04-20T11:07:46.708Z,19.16
2023-04-20T11:09:56.001Z,19.35
2023-04-20T11:12:02.348Z,19.31
2023-04-20T11:14:08.527Z,19.39
2023-04-20T11:16:13.235Z,19.40
2023-04-20T11:18:16.723Z,19.38
2023-04-20T11:20:19.246Z,19.49
2023-04-20T11:22:23.654Z,19.49
2023-04-20T11:24:28.640Z,19.64
2023-04-20T11:26:35.461Z,19.68
2023-04-20T11:28:37.821Z,19.71
2023-04-20T11:30:41.596Z,19.91
2023-04-20T11:32:44.054Z,20.00
2023-04-20T11:34:50.287Z,20.15
2023-04-20T11:36:57.165Z,19.95
2023-04-20T11:39:09.526Z,19.98
2023-04-20T11:41:11.804Z,19.97
2023-04-20T11:43:13.866Z,20.06
2023-04-20T11:45:16.210Z,20.08
2023-04-20T11:47:18.489Z,20.04
2023-04-20T11:49:22.078Z,20.12
2023-04-20T11:51:24.156Z,20.16
2023-04-20T11:53:27.017Z,20.25
2023-04-20T11:55:29.492Z,20.31
2023-04-20T11:57:32.082Z,20.27
2023-04-20T11:59:34.246Z,20.44
2023-04-20T12:01:36.958Z,20.30
2023-04-20T12:03:39.599Z,20.30
2023-04-20T12:05:43.473Z,20.28
2023-04-20T12:07:46.415Z,20.11
2023-04-20T12:09:49.257Z,20.21
2023-04-20T12:11:52.677Z,20.18
2023-04-20T12:13:55.070Z,20.06
2023-04-20T12:15:57.284Z,20.11
2023-04-20T12:17:59.522Z,19.99
2023-04-20T12:20:01.828Z,20.11
2023-04-20T12:22:04.498Z,20.27
2023-04-20T12:24:07.402Z,20.18
2023-04-20T12:26:09.782Z,20.34
2023-04-20T12:28:12.010Z,20.22
2023-04-20T12:30:16.186Z,20.44
2023-04-20T12:32:18.390Z,20.52
2023-04-20T12:34:20.885Z,20.44
2023-04-20T12:36:23.201Z,20.50
2023-04-20T12:38:25.537Z,20.59
2023-04-20T12:40:27.736Z,20.74
2023-04-20T12:42:30.131Z,20.82
2023-04-20T12:44:32.713Z,20.84
2023-04-20T12:46:35.102Z,20.98
2023-04-20T12:48:37.467Z,20.97
2023-04-20T12:50:39.791Z,20.99
2023-04-20T12:52:41.900Z,21.03
2023-04-20T12:54:44.329Z,20.95
2023-04-20T12:56:46.846Z,21.08
2023-04-20T12:58:49.244Z,21.09
2023-04-20T13:00:51.608Z,21.05
2023-04-20T13:02:54.007Z,21.12
2023-04-20T13:05:03.347Z,21.18
2023-04-20T13:07:06.349Z,21.26
2023-04-20T13:09:08.701Z,21.22
2023-04-20T13:11:12.483Z,21.16
2023-04-20T13:13:14.641Z,21.08
2023-04-20T13:15:31.961Z,21.30
2023-04-20T13:17:41.671Z,21.21
2023-04-20T13:19:44.118Z,21.43
2023-04-20T13:21:46.280Z,21.41
2023-04-20T13:23:48.619Z,21.31
2023-04-20T13:25:51.962Z,21.07
2023-04-20T13:27:55.005Z,21.44
2023-04-20T13:30:00.309Z,21.44
2023-04-20T13:32:02.758Z,21.50
2023-04-20T13:34:05.042Z,21.65
2023-04-20T13:36:08.837Z,21.73
2023-04-20T13:38:11.100Z,21.83
2023-04-20T13:40:13.804Z,21.88
2023-04-20T13:42:16.128Z,21.75
2023-04-20T13:44:18.741Z,21.91
2023-04-20T13:46:21.611Z,21.83
2023-04-20T13:48:24.128Z,21.99
2023-04-20T13:50:26.193Z,22.17
2023-04-20T13:52:28.689Z,22.22
2023-04-20T13:54:30.773Z,22.36
2023-04-20T13:56:34.419Z,22.33
2023-04-20T13:58:36.607Z,22.54
2023-04-20T14:00:38.906Z,22.50
2023-04-20T14:02:41.280Z,22.47
2023-04-20T14:04:43.570Z,22.58
2023-04-20T14:06:45.813Z,22.71
2023-04-20T14:08:48.838Z,22.84
2023-04-20T14:10:51.092Z,22.80
2023-04-20T14:12:53.575Z,22.96
2023-04-20T14:14:59.739Z,22.80
2023-04-20T14:17:04.496Z,22.93
2023-04-20T14:19:06.857Z,23.13
2023-04-20T14:21:09.148Z,23.14
2023-04-20T14:23:11.446Z,23.30
2023-04-20T14:25:13.727Z,23.24
2023-04-20T14:29:37.979Z,23.21
2023-04-20T14:31:40.691Z,23.29
2023-04-20T14:33:45.050Z,23.13
2023-04-20T14:35:47.328Z,23.26
2023-04-20T14:37:51.960Z,23.54
2023-04-20T14:39:54.378Z,23.61
2023-04-20T14:41:58.050Z,23.68
2023-04-20T14:44:00.698Z,23.86
2023-04-20T14:46:06.499Z,23.65
2023-04-20T14:48:09.023Z,23.19
2023-04-20T14:50:12.051Z,23.41
2023-04-20T14:52:14.249Z,23.68
2023-04-20T14:54:17.251Z,23.38
2023-04-20T14:56:19.591Z,23.72
2023-04-20T14:58:21.903Z,23.90
2023-04-20T15:00:26.528Z,23.61
2023-04-20T15:02:29.070Z,23.72
2023-04-20T15:04:31.827Z,23.66
2023-04-20T15:06:35.042Z,23.51
2023-04-20T15:08:37.082Z,23.60
2023-04-20T15:10:40.120Z,23.30
2023-04-20T15:12:42.260Z,23.01
2023-04-20T15:14:49.519Z,22.61
2023-04-20T15:16:53.030Z,22.42
2023-04-20T15:18:55.407Z,22.17
2023-04-20T15:20:57.569Z,21.88
2023-04-20T15:22:59.958Z,21.61
2023-04-20T15:25:03.247Z,21.49
2023-04-20T15:27:06.444Z,21.08
2023-04-20T15:29:09.184Z,20.94
2023-04-20T15:31:11.563Z,20.90
2023-04-20T15:33:13.936Z,20.67
2023-04-20T15:35:16.268Z,20.55
2023-04-20T15:37:18.397Z,20.20
2023-04-20T15:39:20.564Z,19.98
2023-04-20T15:41:22.757Z,19.35
2023-04-20T15:43:25.005Z,19.53
2023-04-20T15:45:27.562Z,19.37
2023-04-20T15:47:30.107Z,19.19
2023-04-20T15:49:32.443Z,18.96
2023-04-20T15:51:34.768Z,18.83
2023-04-20T15:53:37.253Z,18.72
2023-04-20T15:55:40.038Z,18.45
2023-04-20T15:57:42.665Z,18.35
2023-04-20T15:59:47.058Z,18.37
2023-04-20T16:01:49.600Z,18.13
2023-04-20T16:03:52.105Z,17.96
2023-04-20T16:05:54.682Z,17.66
2023-04-20T16:07:57.512Z,17.55
2023-04-20T16:10:00.060Z,17.54
2023-04-20T16:12:05.426Z,17.62
2023-04-20T16:14:08.460Z,17.53
2023-04-20T16:16:11.015Z,17.59
2023-04-20T16:18:13.577Z,17.39
2023-04-20T16:20:16.298Z,17.07
2023-04-20T16:22:18.788Z,17.05
2023-04-20T16:24:21.578Z,16.97
2023-04-20T16:26:26.761Z,16.90
2023-04-20T16:28:30.141Z,16.78
2023-04-20T16:30:34.257Z,16.68
2023-04-20T16:32:36.884Z,16.52
2023-04-20T16:34:40.819Z,16.14
2023-04-20T16:36:45.716Z,16.06
2023-04-20T16:38:48.197Z,15.72
2023-04-20T16:40:51.091Z,15.75
2023-04-20T16:42:53.754Z,15.38
2023-04-20T16:44:56.210Z,15.48
2023-04-20T16:46:58.733Z,15.34
2023-04-20T16:49:01.283Z,15.25
2023-04-20T16:51:03.907Z,15.17
2023-04-20T16:53:06.704Z,14.91
2023-04-20T16:55:10.104Z,14.74
2023-04-20T16:57:12.366Z,14.56
2023-04-20T16:59:15.814Z,14.39
2023-04-20T17:01:18.523Z,14.44
2023-04-20T17:03:22.472Z,14.39
2023-04-20T17:05:25.592Z,14.26
2023-04-20T17:07:29.824Z,14.25
2023-04-20T17:09:32.290Z,14.22
2023-04-20T17:11:36.285Z,14.26
2023-04-20T17:13:39.325Z,14.23
2023-04-20T17:15:43.360Z,14.07
2023-04-20T17:17:45.538Z,14.03
2023-04-20T17:19:47.925Z,13.75
2023-04-20T17:21:50.718Z,13.80
2023-04-20T17:23:52.964Z,13.67
2023-04-20T17:25:56.078Z,13.74
2023-04-20T17:27:58.362Z,13.66
2023-04-20T17:30:00.808Z,13.50
2023-04-20T17:32:03.124Z,13.48
2023-04-20T17:34:07.591Z,13.44
2023-04-20T17:36:09.991Z,13.49
2023-04-20T17:38:12.290Z,13.34
2023-04-20T17:40:14.918Z,13.41
2023-04-20T17:42:18.044Z,13.21
2023-04-20T17:44:21.275Z,13.33
2023-04-20T17:46:23.962Z,13.34
2023-04-20T17:48:26.372Z,13.25
2023-04-20T17:50:29.758Z,13.15
2023-04-20T17:52:32.415Z,13.20
2023-04-20T17:54:34.934Z,13.08
2023-04-20T17:56:37.309Z,13.12
2023-04-20T17:58:39.594Z,13.00
2023-04-20T18:00:47.890Z,13.07
2023-04-20T18:02:52.076Z,13.09
2023-04-20T18:04:58.271Z,13.11
2023-04-20T18:07:00.512Z,12.94
2023-04-20T18:09:05.267Z,12.99
2023-04-20T18:11:07.489Z,13.07
2023-04-20T18:13:10.047Z,12.89
2023-04-20T18:15:13.326Z,12.89
2023-04-20T18:17:16.221Z,12.82
2023-04-20T18:19:19.411Z,12.88
2023-04-20T18:21:24.103Z,12.87
2023-04-20T18:23:28.278Z,12.84
2023-04-20T18:25:31.008Z,12.84
2023-04-20T18:27:33.334Z,12.91
2023-04-20T18:29:35.908Z,12.81
2023-04-20T18:31:38.354Z,12.79
2023-04-20T18:33:41.034Z,12.90
2023-04-20T18:35:44.122Z,12.84
2023-04-20T18:37:46.576Z,12.77
2023-04-20T18:39:48.762Z,12.78
2023-04-20T18:41:51.320Z,12.72
2023-04-20T18:43:54.865Z,12.57
2023-04-20T18:45:57.910Z,12.69
2023-04-20T18:48:00.519Z,12.64
2023-04-20T18:50:02.990Z,12.75
2023-04-20T18:52:05.319Z,12.71
2023-04-20T18:54:08.033Z,12.64
2023-04-20T18:56:10.434Z,12.61
2023-04-20T18:58:12.717Z,12.71
2023-04-20T19:00:15.975Z,12.66
2023-04-20T19:02:18.706Z,12.68
2023-04-20T19:04:22.156Z,12.65
2023-04-20T19:06:24.922Z,12.62
2023-04-20T19:08:27.159Z,12.49
2023-04-20T19:10:29.375Z,12.54
2023-04-20T19:12:32.800Z,12.45
2023-04-20T19:14:35.009Z,12.46
2023-04-20T19:16:37.199Z,12.52
2023-04-20T19:18:43.076Z,12.42
2023-04-20T19:20:45.494Z,12.45
2023-04-20T19:22:47.698Z,12.45
2023-04-20T19:24:51.488Z,12.35
2023-04-20T19:26:54.036Z,12.39
2023-04-20T19:28:58.054Z,12.41
2023-04-20T19:31:01.021Z,12.38
2023-04-20T19:33:05.193Z,12.30
2023-04-20T19:35:07.973Z,12.27
2023-04-20T19:37:10.038Z,12.26
2023-04-20T19:39:12.182Z,12.33
2023-04-20T19:41:14.287Z,12.31
2023-04-20T19:43:17.092Z,12.26
2023-04-20T19:45:19.620Z,12.05
2023-04-20T19:47:21.904Z,12.14
2023-04-20T19:49:23.877Z,12.17
2023-04-20T19:51:26.105Z,12.18
2023-04-20T19:53:29.026Z,12.09
2023-04-20T19:55:31.219Z,12.16
2023-04-20T19:57:35.671Z,12.19
2023-04-20T19:59:39.239Z,12.07
2023-04-20T20:01:41.334Z,12.03
2023-04-20T20:03:43.540Z,12.09
2023-04-20T20:05:45.699Z,12.10
2023-04-20T20:07:47.781Z,12.11
2023-04-20T20:09:49.666Z,12.08
2023-04-20T20:11:51.517Z,11.93
2023-04-20T20:13:53.503Z,12.02
2023-04-20T20:15:55.767Z,12.00
2023-04-20T20:17:59.672Z,11.96
2023-04-20T20:20:02.369Z,12.06
2023-04-20T20:22:05.008Z,12.07
2023-04-20T20:24:07.238Z,12.02
2023-04-20T20:26:09.190Z,11.98
2023-04-20T20:28:11.710Z,12.01
2023-04-20T20:30:15.382Z,12.02
2023-04-20T20:32:17.434Z,11.96
2023-04-20T20:34:19.429Z,11.99
2023-04-20T20:36:21.455Z,11.91
2023-04-20T20:38:23.794Z,11.88
2023-04-20T20:40:26.196Z,11.85
2023-04-20T20:42:30.649Z,11.84
2023-04-20T20:44:34.519Z,11.94
2023-04-20T20:46:39.424Z,11.96
2023-04-20T20:48:43.961Z,11.90
2023-04-20T20:50:45.920Z,11.88
2023-04-20T20:52:47.805Z,11.89
2023-04-20T20:54:49.866Z,11.90
2023-04-20T20:56:54.223Z,11.75
2023-04-20T20:58:56.210Z,11.76
2023-04-20T21:00:58.129Z,11.83
2023-04-20T21:03:00.208Z,11.88
2023-04-20T21:05:02.684Z,11.82
2023-04-20T21:07:04.641Z,11.82
2023-04-20T21:09:06.507Z,11.81
2023-04-20T21:11:08.874Z,11.74
2023-04-20T21:13:11.058Z,11.75
2023-04-20T21:15:13.036Z,11.75
2023-04-20T21:17:14.877Z,11.71
2023-04-20T21:19:17.067Z,11.70
2023-04-20T21:21:19.347Z,11.67
2023-04-20T21:23:21.594Z,11.70
2023-04-20T21:25:23.669Z,11.59
2023-04-20T21:27:26.965Z,11.61
2023-04-20T21:29:29.963Z,11.65
2023-04-20T21:31:32.931Z,11.65
2023-04-20T21:33:35.975Z,11.61
2023-04-20T21:35:37.852Z,11.53
2023-04-20T21:37:39.872Z,11.52
2023-04-20T21:39:41.700Z,11.55
2023-04-20T21:41:44.260Z,11.40
2023-04-20T21:43:46.504Z,11.49
2023-04-20T21:45:48.388Z,11.51
2023-04-20T21:47:50.453Z,11.49
2023-04-20T21:49:52.385Z,11.50
2023-04-20T21:51:54.232Z,11.59
2023-04-20T21:53:56.091Z,11.68
2023-04-20T21:55:58.020Z,11.62
2023-04-20T21:57:59.839Z,11.73
2023-04-20T22:00:01.687Z,11.71
2023-04-20T22:02:04.620Z,11.71
2023-04-20T22:04:07.464Z,11.73
2023-04-20T22:06:09.522Z,11.77
2023-04-20T22:08:14.102Z,11.83
2023-04-20T22:10:16.249Z,11.77
2023-04-20T22:12:32.299Z,11.73
2023-04-20T22:14:40.592Z,11.64
2023-04-20T22:16:42.795Z,11.72
2023-04-20T22:18:44.690Z,11.67
2023-04-20T22:20:46.862Z,11.75
2023-04-20T22:22:48.812Z,11.61
2023-04-20T22:24:50.801Z,11.64
2023-04-20T22:26:52.665Z,11.64
2023-04-20T22:28:54.768Z,11.55
2023-04-20T22:30:57.271Z,11.64
2023-04-20T22:33:02.472Z,11.63
2023-04-20T22:35:05.128Z,11.75
2023-04-20T22:37:08.874Z,11.79
2023-04-20T22:39:10.983Z,11.67
2023-04-20T22:41:14.740Z,11.70
2023-04-20T22:43:18.689Z,11.71
2023-04-20T22:45:20.658Z,11.72
2023-04-20T22:47:23.033Z,11.74
2023-04-20T22:49:25.119Z,11.79
2023-04-20T22:51:29.095Z,11.77
2023-04-20T22:53:31.063Z,11.76
2023-04-20T22:55:32.935Z,11.76
2023-04-20T22:57:34.719Z,11.71
2023-04-20T22:59:36.582Z,11.82
2023-04-20T23:01:38.526Z,11.78
2023-04-20T23:03:40.683Z,11.71
2023-04-20T23:05:44.490Z,11.70
2023-04-20T23:07:46.721Z,11.69
2023-04-20T23:09:49.389Z,11.66
2023-04-20T23:11:53.848Z,11.53
2023-04-20T23:13:56.063Z,11.63
2023-04-20T23:15:57.899Z,11.67
2023-04-20T23:17:59.811Z,11.67
2023-04-20T23:20:01.551Z,11.70
2023-04-20T23:22:03.523Z,11.70
2023-04-20T23:24:05.452Z,11.65
2023-04-20T23:26:07.206Z,11.68
2023-04-20T23:28:09.040Z,11.57
2023-04-20T23:30:11.507Z,11.68
2023-04-20T23:32:13.284Z,11.64
2023-04-20T23:34:15.350Z,11.67
2023-04-20T23:36:19.560Z,11.69
2023-04-20T23:38:21.350Z,11.68
2023-04-20T23:40:23.223Z,11.68
2023-04-20T23:42:24.916Z,11.65
2023-04-20T23:44:26.619Z,11.76
2023-04-20T23:46:28.484Z,11.76
2023-04-20T23:48:30.308Z,11.73
2023-04-20T23:50:32.232Z,11.59
2023-04-20T23:52:34.087Z,11.66
2023-04-20T23:54:36.025Z,11.62
2023-04-20T23:56:37.856Z,11.59
2023-04-20T23:58:39.904Z,11.68
